Terminal Aerodrome Forecast
Issued by NWS

Home | Current Version | Previous Version | Text Only | Print | Product List | Glossary On
Versions: 1 2 3 4 5 6 7 8 9 10 11 12 13 14 15 16
000
FTUS43 KPAH 150520
TAFOWB
TAF
KOWB 150520Z 1506/1606 31005KT P6SM OVC040
     FM151400 26006KT P6SM SCT040
     FM151900 28010KT P6SM BKN035
     FM160200 22004KT P6SM FEW200=

USA.gov is the U.S. government's official web portal to all federal, state and local government web resources and services.